<?xml version="1.0" encoding="UTF-8" standalone="no" ?>
<gpx xmlns="http://www.topografix.com/GPX/1/1" xmlns:xsi="http://www.w3.org/2001/XMLSchema-instance" xsi:schemaLocation="http://www.topografix.com/GPX/1/1 http://www.topografix.com/GPX/1/1/gpx.xsd" version="1.1" creator="VisuGPX - https://www.visugpx.com">
  <metadata>
    <name>Vacances 2021</name>
  </metadata>
  <trk>
    <name><![CDATA[Journal actif: 2021-07-26 16:34]]></name>
    <trkseg>
      <trkpt lat="49.44192" lon="3.73264">
        <ele>185.19</ele>
        <time>2021-07-26T18:34:35Z</time>
      </trkpt>
      <trkpt lat="49.44192" lon="3.73264">
        <ele>185.19</ele>
        <time>2021-07-26T18:35:52Z</time>
      </trkpt>
      <trkpt lat="49.44192" lon="3.73264">
        <ele>185.19</ele>
        <time>2021-07-26T18:35:54Z</time>
      </trkpt>
      <trkpt lat="49.44192" lon="3.73264">
        <ele>185.19</ele>
        <time>2021-07-26T18:35:57Z</time>
      </trkpt>
      <trkpt lat="49.44192" lon="3.73262">
        <ele>185.19</ele>
        <time>2021-07-26T18:35:58Z</time>
      </trkpt>
      <trkpt lat="49.44197" lon="3.73231">
        <ele>185.67</ele>
        <time>2021-07-26T18:36:11Z</time>
      </trkpt>
      <trkpt lat="49.44199" lon="3.73198">
        <ele>186.15</ele>
        <time>2021-07-26T18:36:20Z</time>
      </trkpt>
      <trkpt lat="49.44192" lon="3.73078">
        <ele>186.63</ele>
        <time>2021-07-26T18:36:33Z</time>
      </trkpt>
      <trkpt lat="49.44184" lon="3.72927">
        <ele>187.11</ele>
        <time>2021-07-26T18:36:46Z</time>
      </trkpt>
      <trkpt lat="49.44182" lon="3.72894">
        <ele>187.59</ele>
        <time>2021-07-26T18:36:55Z</time>
      </trkpt>
      <trkpt lat="49.4418" lon="3.72874">
        <ele>187.59</ele>
        <time>2021-07-26T18:37:33Z</time>
      </trkpt>
      <trkpt lat="49.44175" lon="3.7278">
        <ele>188.56</ele>
        <time>2021-07-26T18:37:43Z</time>
      </trkpt>
      <trkpt lat="49.44164" lon="3.72595">
        <ele>190</ele>
        <time>2021-07-26T18:37:54Z</time>
      </trkpt>
      <trkpt lat="49.44145" lon="3.72283">
        <ele>191.92</ele>
        <time>2021-07-26T18:38:09Z</time>
      </trkpt>
      <trkpt lat="49.44113" lon="3.71802">
        <ele>194.8</ele>
        <time>2021-07-26T18:38:30Z</time>
      </trkpt>
      <trkpt lat="49.44061" lon="3.71452">
        <ele>197.21</ele>
        <time>2021-07-26T18:38:45Z</time>
      </trkpt>
      <trkpt lat="49.44024" lon="3.71117">
        <ele>200.57</ele>
        <time>2021-07-26T18:38:59Z</time>
      </trkpt>
      <trkpt lat="49.44032" lon="3.70723">
        <ele>199.13</ele>
        <time>2021-07-26T18:39:15Z</time>
      </trkpt>
      <trkpt lat="49.44041" lon="3.70298">
        <ele>198.17</ele>
        <time>2021-07-26T18:39:32Z</time>
      </trkpt>
      <trkpt lat="49.44062" lon="3.69782">
        <ele>193.36</ele>
        <time>2021-07-26T18:39:51Z</time>
      </trkpt>
      <trkpt lat="49.44084" lon="3.69299">
        <ele>183.75</ele>
        <time>2021-07-26T18:40:07Z</time>
      </trkpt>
      <trkpt lat="49.44113" lon="3.68653">
        <ele>186.63</ele>
        <time>2021-07-26T18:40:28Z</time>
      </trkpt>
      <trkpt lat="49.44141" lon="3.68029">
        <ele>193.36</ele>
        <time>2021-07-26T18:40:48Z</time>
      </trkpt>
      <trkpt lat="49.44165" lon="3.67494">
        <ele>187.11</ele>
        <time>2021-07-26T18:41:07Z</time>
      </trkpt>
      <trkpt lat="49.44199" lon="3.67207">
        <ele>186.63</ele>
        <time>2021-07-26T18:41:18Z</time>
      </trkpt>
      <trkpt lat="49.44247" lon="3.6693">
        <ele>185.19</ele>
        <time>2021-07-26T18:41:31Z</time>
      </trkpt>
      <trkpt lat="49.44256" lon="3.66874">
        <ele>186.15</ele>
        <time>2021-07-26T18:41:35Z</time>
      </trkpt>
      <trkpt lat="49.44258" lon="3.66864">
        <ele>186.63</ele>
        <time>2021-07-26T18:41:36Z</time>
      </trkpt>
      <trkpt lat="49.44257" lon="3.66855">
        <ele>187.11</ele>
        <time>2021-07-26T18:41:37Z</time>
      </trkpt>
      <trkpt lat="49.44256" lon="3.66848">
        <ele>187.59</ele>
        <time>2021-07-26T18:41:38Z</time>
      </trkpt>
      <trkpt lat="49.44256" lon="3.66844">
        <ele>187.11</ele>
        <time>2021-07-26T18:41:39Z</time>
      </trkpt>
      <trkpt lat="49.44255" lon="3.66843">
        <ele>186.63</ele>
        <time>2021-07-26T18:41:52Z</time>
      </trkpt>
      <trkpt lat="49.44252" lon="3.66823">
        <ele>186.63</ele>
        <time>2021-07-26T18:41:56Z</time>
      </trkpt>
      <trkpt lat="49.44251" lon="3.66819">
        <ele>186.63</ele>
        <time>2021-07-26T18:41:57Z</time>
      </trkpt>
      <trkpt lat="49.44256" lon="3.66807">
        <ele>186.63</ele>
        <time>2021-07-26T18:41:58Z</time>
      </trkpt>
      <trkpt lat="49.44258" lon="3.668">
        <ele>186.15</ele>
        <time>2021-07-26T18:41:59Z</time>
      </trkpt>
      <trkpt lat="49.44261" lon="3.66792">
        <ele>186.15</ele>
        <time>2021-07-26T18:42:00Z</time>
      </trkpt>
      <trkpt lat="49.44265" lon="3.66783">
        <ele>186.15</ele>
        <time>2021-07-26T18:42:01Z</time>
      </trkpt>
      <trkpt lat="49.44269" lon="3.66774">
        <ele>186.15</ele>
        <time>2021-07-26T18:42:02Z</time>
      </trkpt>
      <trkpt lat="49.44273" lon="3.66765">
        <ele>186.63</ele>
        <time>2021-07-26T18:42:03Z</time>
      </trkpt>
      <trkpt lat="49.44276" lon="3.66757">
        <ele>186.15</ele>
        <time>2021-07-26T18:42:04Z</time>
      </trkpt>
      <trkpt lat="49.44279" lon="3.66739">
        <ele>186.15</ele>
        <time>2021-07-26T18:42:05Z</time>
      </trkpt>
      <trkpt lat="49.44301" lon="3.66612">
        <ele>185.19</ele>
        <time>2021-07-26T18:42:20Z</time>
      </trkpt>
      <trkpt lat="49.44309" lon="3.66566">
        <ele>185.19</ele>
        <time>2021-07-26T18:42:27Z</time>
      </trkpt>
      <trkpt lat="49.44323" lon="3.66496">
        <ele>185.19</ele>
        <time>2021-07-26T18:42:34Z</time>
      </trkpt>
      <trkpt lat="49.4435" lon="3.66355">
        <ele>185.19</ele>
        <time>2021-07-26T18:42:43Z</time>
      </trkpt>
      <trkpt lat="49.44414" lon="3.66022">
        <ele>181.35</ele>
        <time>2021-07-26T18:42:58Z</time>
      </trkpt>
      <trkpt lat="49.44503" lon="3.65566">
        <ele>179.9</ele>
        <time>2021-07-26T18:43:15Z</time>
      </trkpt>
      <trkpt lat="49.44597" lon="3.65089">
        <ele>186.63</ele>
        <time>2021-07-26T18:43:33Z</time>
      </trkpt>
      <trkpt lat="49.44672" lon="3.64706">
        <ele>180.87</ele>
        <time>2021-07-26T18:43:47Z</time>
      </trkpt>
      <trkpt lat="49.4473" lon="3.64373">
        <ele>172.21</ele>
        <time>2021-07-26T18:43:59Z</time>
      </trkpt>
      <trkpt lat="49.4473" lon="3.64349">
        <ele>172.69</ele>
        <time>2021-07-26T18:44:00Z</time>
      </trkpt>
      <trkpt lat="49.44704" lon="3.64062">
        <ele>172.21</ele>
        <time>2021-07-26T18:44:11Z</time>
      </trkpt>
      <trkpt lat="49.44675" lon="3.63634">
        <ele>166.45</ele>
        <time>2021-07-26T18:44:26Z</time>
      </trkpt>
      <trkpt lat="49.44708" lon="3.63267">
        <ele>170.77</ele>
        <time>2021-07-26T18:44:38Z</time>
      </trkpt>
      <trkpt lat="49.44762" lon="3.62706">
        <ele>177.98</ele>
        <time>2021-07-26T18:44:57Z</time>
      </trkpt>
      <trkpt lat="49.44747" lon="3.62314">
        <ele>184.71</ele>
        <time>2021-07-26T18:45:11Z</time>
      </trkpt>
      <trkpt lat="49.44727" lon="3.61774">
        <ele>183.27</ele>
        <time>2021-07-26T18:45:31Z</time>
      </trkpt>
      <trkpt lat="49.44714" lon="3.61421">
        <ele>188.08</ele>
        <time>2021-07-26T18:45:45Z</time>
      </trkpt>
      <trkpt lat="49.44703" lon="3.60992">
        <ele>187.11</ele>
        <time>2021-07-26T18:46:00Z</time>
      </trkpt>
      <trkpt lat="49.44694" lon="3.60613">
        <ele>184.23</ele>
        <time>2021-07-26T18:46:12Z</time>
      </trkpt>
      <trkpt lat="49.44668" lon="3.60209">
        <ele>183.27</ele>
        <time>2021-07-26T18:46:25Z</time>
      </trkpt>
      <trkpt lat="49.44555" lon="3.59678">
        <ele>187.59</ele>
        <time>2021-07-26T18:46:42Z</time>
      </trkpt>
      <trkpt lat="49.44521" lon="3.59407">
        <ele>191.44</ele>
        <time>2021-07-26T18:46:50Z</time>
      </trkpt>
      <trkpt lat="49.44487" lon="3.59035">
        <ele>188.08</ele>
        <time>2021-07-26T18:47:04Z</time>
      </trkpt>
      <trkpt lat="49.44482" lon="3.58733">
        <ele>184.23</ele>
        <time>2021-07-26T18:47:14Z</time>
      </trkpt>
      <trkpt lat="49.44521" lon="3.58463">
        <ele>186.63</ele>
        <time>2021-07-26T18:47:23Z</time>
      </trkpt>
      <trkpt lat="49.44594" lon="3.58083">
        <ele>184.71</ele>
        <time>2021-07-26T18:47:36Z</time>
      </trkpt>
      <trkpt lat="49.44676" lon="3.57575">
        <ele>188.56</ele>
        <time>2021-07-26T18:47:53Z</time>
      </trkpt>
      <trkpt lat="49.44674" lon="3.57548">
        <ele>189.04</ele>
        <time>2021-07-26T18:47:54Z</time>
      </trkpt>
      <trkpt lat="49.44648" lon="3.57123">
        <ele>191.44</ele>
        <time>2021-07-26T18:48:09Z</time>
      </trkpt>
      <trkpt lat="49.44632" lon="3.56722">
        <ele>183.75</ele>
        <time>2021-07-26T18:48:23Z</time>
      </trkpt>
      <trkpt lat="49.44689" lon="3.56037">
        <ele>186.15</ele>
        <time>2021-07-26T18:48:45Z</time>
      </trkpt>
      <trkpt lat="49.44721" lon="3.55712">
        <ele>186.15</ele>
        <time>2021-07-26T18:48:56Z</time>
      </trkpt>
      <trkpt lat="49.44762" lon="3.55312">
        <ele>181.83</ele>
        <time>2021-07-26T18:49:12Z</time>
      </trkpt>
      <trkpt lat="49.44782" lon="3.55171">
        <ele>181.35</ele>
        <time>2021-07-26T18:49:18Z</time>
      </trkpt>
      <trkpt lat="49.44788" lon="3.55147">
        <ele>182.79</ele>
        <time>2021-07-26T18:49:19Z</time>
      </trkpt>
      <trkpt lat="49.449" lon="3.54804">
        <ele>187.11</ele>
        <time>2021-07-26T18:49:33Z</time>
      </trkpt>
      <trkpt lat="49.44932" lon="3.54681">
        <ele>188.08</ele>
        <time>2021-07-26T18:49:38Z</time>
      </trkpt>
      <trkpt lat="49.44937" lon="3.54658">
        <ele>188.56</ele>
        <time>2021-07-26T18:49:39Z</time>
      </trkpt>
      <trkpt lat="49.44967" lon="3.54404">
        <ele>183.75</ele>
        <time>2021-07-26T18:49:48Z</time>
      </trkpt>
      <trkpt lat="49.45018" lon="3.54063">
        <ele>178.94</ele>
        <time>2021-07-26T18:50:00Z</time>
      </trkpt>
      <trkpt lat="49.45049" lon="3.53998">
        <ele>177.98</ele>
        <time>2021-07-26T18:50:05Z</time>
      </trkpt>
      <trkpt lat="49.45059" lon="3.53982">
        <ele>179.42</ele>
        <time>2021-07-26T18:50:11Z</time>
      </trkpt>
      <trkpt lat="49.45059" lon="3.53982">
        <ele>179.9</ele>
        <time>2021-07-26T18:50:18Z</time>
      </trkpt>
      <trkpt lat="49.45059" lon="3.5398">
        <ele>179.9</ele>
        <time>2021-07-26T18:50:19Z</time>
      </trkpt>
      <trkpt lat="49.4506" lon="3.53977">
        <ele>179.9</ele>
        <time>2021-07-26T18:50:20Z</time>
      </trkpt>
      <trkpt lat="49.45051" lon="3.53979">
        <ele>179.9</ele>
        <time>2021-07-26T18:50:21Z</time>
      </trkpt>
      <trkpt lat="49.45047" lon="3.53975">
        <ele>179.9</ele>
        <time>2021-07-26T18:50:22Z</time>
      </trkpt>
      <trkpt lat="49.44989" lon="3.53923">
        <ele>180.38</ele>
        <time>2021-07-26T18:50:30Z</time>
      </trkpt>
      <trkpt lat="49.44881" lon="3.53843">
        <ele>178.46</ele>
        <time>2021-07-26T18:50:39Z</time>
      </trkpt>
      <trkpt lat="49.44753" lon="3.53831">
        <ele>185.19</ele>
        <time>2021-07-26T18:50:47Z</time>
      </trkpt>
      <trkpt lat="49.44467" lon="3.53832">
        <ele>189.04</ele>
        <time>2021-07-26T18:51:03Z</time>
      </trkpt>
      <trkpt lat="49.44164" lon="3.53832">
        <ele>186.63</ele>
        <time>2021-07-26T18:51:19Z</time>
      </trkpt>
      <trkpt lat="49.43797" lon="3.53821">
        <ele>183.75</ele>
        <time>2021-07-26T18:51:38Z</time>
      </trkpt>
      <trkpt lat="49.43572" lon="3.53791">
        <ele>180.38</ele>
        <time>2021-07-26T18:51:49Z</time>
      </trkpt>
      <trkpt lat="49.43493" lon="3.53758">
        <ele>178.46</ele>
        <time>2021-07-26T18:51:53Z</time>
      </trkpt>
      <trkpt lat="49.43456" lon="3.53732">
        <ele>178.94</ele>
        <time>2021-07-26T18:51:54Z</time>
      </trkpt>
      <trkpt lat="49.43243" lon="3.5352">
        <ele>185.19</ele>
        <time>2021-07-26T18:52:07Z</time>
      </trkpt>
      <trkpt lat="49.43095" lon="3.53353">
        <ele>178.94</ele>
        <time>2021-07-26T18:52:16Z</time>
      </trkpt>
      <trkpt lat="49.42964" lon="3.53214">
        <ele>176.06</ele>
        <time>2021-07-26T18:52:24Z</time>
      </trkpt>
      <trkpt lat="49.4294" lon="3.53169">
        <ele>175.1</ele>
        <time>2021-07-26T18:52:25Z</time>
      </trkpt>
      <trkpt lat="49.42928" lon="3.53146">
        <ele>175.58</ele>
        <time>2021-07-26T18:52:26Z</time>
      </trkpt>
      <trkpt lat="49.42928" lon="3.53146">
        <ele>174.62</ele>
        <time>2021-07-26T18:52:27Z</time>
      </trkpt>
      <trkpt lat="49.42919" lon="3.53118">
        <ele>173.66</ele>
        <time>2021-07-26T18:52:28Z</time>
      </trkpt>
      <trkpt lat="49.42795" lon="3.52709">
        <ele>169.81</ele>
        <time>2021-07-26T18:52:42Z</time>
      </trkpt>
      <trkpt lat="49.42627" lon="3.52157">
        <ele>155.39</ele>
        <time>2021-07-26T18:53:00Z</time>
      </trkpt>
      <trkpt lat="49.42537" lon="3.51891">
        <ele>148.66</ele>
        <time>2021-07-26T18:53:10Z</time>
      </trkpt>
      <trkpt lat="49.42525" lon="3.5187">
        <ele>148.18</ele>
        <time>2021-07-26T18:53:11Z</time>
      </trkpt>
      <trkpt lat="49.42511" lon="3.5185">
        <ele>147.22</ele>
        <time>2021-07-26T18:53:12Z</time>
      </trkpt>
      <trkpt lat="49.4239" lon="3.51693">
        <ele>140.97</ele>
        <time>2021-07-26T18:53:20Z</time>
      </trkpt>
      <trkpt lat="49.42344" lon="3.51643">
        <ele>136.16</ele>
        <time>2021-07-26T18:53:23Z</time>
      </trkpt>
      <trkpt lat="49.42326" lon="3.51628">
        <ele>134.72</ele>
        <time>2021-07-26T18:53:24Z</time>
      </trkpt>
      <trkpt lat="49.42183" lon="3.5152">
        <ele>127.03</ele>
        <time>2021-07-26T18:53:32Z</time>
      </trkpt>
      <trkpt lat="49.42024" lon="3.51388">
        <ele>118.38</ele>
        <time>2021-07-26T18:53:40Z</time>
      </trkpt>
      <trkpt lat="49.41994" lon="3.51359">
        <ele>115.5</ele>
        <time>2021-07-26T18:53:42Z</time>
      </trkpt>
      <trkpt lat="49.41982" lon="3.51341">
        <ele>114.53</ele>
        <time>2021-07-26T18:53:43Z</time>
      </trkpt>
      <trkpt lat="49.41971" lon="3.51321">
        <ele>114.05</ele>
        <time>2021-07-26T18:53:44Z</time>
      </trkpt>
      <trkpt lat="49.41971" lon="3.51321">
        <ele>112.61</ele>
        <time>2021-07-26T18:53:45Z</time>
      </trkpt>
      <trkpt lat="49.41955" lon="3.51288">
        <ele>111.65</ele>
        <time>2021-07-26T18:53:46Z</time>
      </trkpt>
      <trkpt lat="49.41955" lon="3.51288">
        <ele>110.21</ele>
        <time>2021-07-26T18:53:47Z</time>
      </trkpt>
      <trkpt lat="49.41948" lon="3.51274">
        <ele>109.25</ele>
        <time>2021-07-26T18:53:48Z</time>
      </trkpt>
      <trkpt lat="49.41942" lon="3.51261">
        <ele>109.73</ele>
        <time>2021-07-26T18:53:49Z</time>
      </trkpt>
      <trkpt lat="49.41934" lon="3.5125">
        <ele>109.73</ele>
        <time>2021-07-26T18:53:50Z</time>
      </trkpt>
      <trkpt lat="49.41926" lon="3.51239">
        <ele>108.29</ele>
        <time>2021-07-26T18:53:51Z</time>
      </trkpt>
      <trkpt lat="49.41914" lon="3.51235">
        <ele>108.29</ele>
        <time>2021-07-26T18:53:52Z</time>
      </trkpt>
      <trkpt lat="49.41902" lon="3.51232">
        <ele>108.77</ele>
        <time>2021-07-26T18:53:53Z</time>
      </trkpt>
      <trkpt lat="49.41877" lon="3.51224">
        <ele>107.81</ele>
        <time>2021-07-26T18:53:55Z</time>
      </trkpt>
      <trkpt lat="49.41864" lon="3.51217">
        <ele>106.84</ele>
        <time>2021-07-26T18:53:56Z</time>
      </trkpt>
      <trkpt lat="49.41851" lon="3.51207">
        <ele>105.88</ele>
        <time>2021-07-26T18:53:57Z</time>
      </trkpt>
      <trkpt lat="49.4184" lon="3.51192">
        <ele>105.4</ele>
        <time>2021-07-26T18:53:58Z</time>
      </trkpt>
      <trkpt lat="49.4183" lon="3.51174">
        <ele>104.44</ele>
        <time>2021-07-26T18:53:59Z</time>
      </trkpt>
      <trkpt lat="49.41821" lon="3.51156">
        <ele>103.48</ele>
        <time>2021-07-26T18:54:00Z</time>
      </trkpt>
      <trkpt lat="49.41766" lon="3.51063">
        <ele>102.04</ele>
        <time>2021-07-26T18:54:05Z</time>
      </trkpt>
      <trkpt lat="49.41752" lon="3.5105">
        <ele>101.08</ele>
        <time>2021-07-26T18:54:06Z</time>
      </trkpt>
      <trkpt lat="49.41737" lon="3.51036">
        <ele>99.63</ele>
        <time>2021-07-26T18:54:07Z</time>
      </trkpt>
      <trkpt lat="49.41569" lon="3.50937">
        <ele>90.98</ele>
        <time>2021-07-26T18:54:18Z</time>
      </trkpt>
      <trkpt lat="49.41556" lon="3.50935">
        <ele>91.94</ele>
        <time>2021-07-26T18:54:19Z</time>
      </trkpt>
      <trkpt lat="49.41545" lon="3.50934">
        <ele>92.42</ele>
        <time>2021-07-26T18:54:20Z</time>
      </trkpt>
      <trkpt lat="49.41533" lon="3.5094">
        <ele>92.42</ele>
        <time>2021-07-26T18:54:21Z</time>
      </trkpt>
      <trkpt lat="49.4152" lon="3.50946">
        <ele>91.46</ele>
        <time>2021-07-26T18:54:22Z</time>
      </trkpt>
      <trkpt lat="49.4151" lon="3.50957">
        <ele>90.5</ele>
        <time>2021-07-26T18:54:23Z</time>
      </trkpt>
      <trkpt lat="49.41493" lon="3.50987">
        <ele>89.54</ele>
        <time>2021-07-26T18:54:24Z</time>
      </trkpt>
      <trkpt lat="49.41485" lon="3.51005">
        <ele>88.1</ele>
        <time>2021-07-26T18:54:25Z</time>
      </trkpt>
      <trkpt lat="49.41485" lon="3.51005">
        <ele>88.1</ele>
        <time>2021-07-26T18:54:26Z</time>
      </trkpt>
      <trkpt lat="49.41485" lon="3.51025">
        <ele>86.66</ele>
        <time>2021-07-26T18:54:27Z</time>
      </trkpt>
      <trkpt lat="49.41484" lon="3.51067">
        <ele>84.73</ele>
        <time>2021-07-26T18:54:28Z</time>
      </trkpt>
      <trkpt lat="49.41484" lon="3.51067">
        <ele>83.77</ele>
        <time>2021-07-26T18:54:29Z</time>
      </trkpt>
      <trkpt lat="49.41484" lon="3.51087">
        <ele>83.29</ele>
        <time>2021-07-26T18:54:30Z</time>
      </trkpt>
      <trkpt lat="49.41483" lon="3.51107">
        <ele>83.29</ele>
        <time>2021-07-26T18:54:31Z</time>
      </trkpt>
      <trkpt lat="49.4148" lon="3.51127">
        <ele>83.29</ele>
        <time>2021-07-26T18:54:32Z</time>
      </trkpt>
      <trkpt lat="49.41475" lon="3.51148">
        <ele>82.81</ele>
        <time>2021-07-26T18:54:33Z</time>
      </trkpt>
      <trkpt lat="49.41469" lon="3.51171">
        <ele>80.89</ele>
        <time>2021-07-26T18:54:34Z</time>
      </trkpt>
      <trkpt lat="49.41461" lon="3.51189">
        <ele>79.45</ele>
        <time>2021-07-26T18:54:35Z</time>
      </trkpt>
      <trkpt lat="49.41452" lon="3.51202">
        <ele>77.52</ele>
        <time>2021-07-26T18:54:36Z</time>
      </trkpt>
      <trkpt lat="49.41441" lon="3.51209">
        <ele>76.56</ele>
        <time>2021-07-26T18:54:37Z</time>
      </trkpt>
      <trkpt lat="49.41429" lon="3.51217">
        <ele>75.12</ele>
        <time>2021-07-26T18:54:38Z</time>
      </trkpt>
      <trkpt lat="49.41418" lon="3.51215">
        <ele>74.64</ele>
        <time>2021-07-26T18:54:39Z</time>
      </trkpt>
      <trkpt lat="49.41404" lon="3.51212">
        <ele>74.16</ele>
        <time>2021-07-26T18:54:40Z</time>
      </trkpt>
      <trkpt lat="49.41391" lon="3.5121">
        <ele>73.68</ele>
        <time>2021-07-26T18:54:41Z</time>
      </trkpt>
      <trkpt lat="49.4134" lon="3.512">
        <ele>72.24</ele>
        <time>2021-07-26T18:54:45Z</time>
      </trkpt>
      <trkpt lat="49.41329" lon="3.51198">
        <ele>72.72</ele>
        <time>2021-07-26T18:54:46Z</time>
      </trkpt>
      <trkpt lat="49.41318" lon="3.512">
        <ele>72.24</ele>
        <time>2021-07-26T18:54:47Z</time>
      </trkpt>
      <trkpt lat="49.41308" lon="3.51204">
        <ele>71.27</ele>
        <time>2021-07-26T18:54:48Z</time>
      </trkpt>
      <trkpt lat="49.41299" lon="3.51213">
        <ele>70.79</ele>
        <time>2021-07-26T18:54:49Z</time>
      </trkpt>
      <trkpt lat="49.4129" lon="3.51225">
        <ele>69.35</ele>
        <time>2021-07-26T18:54:50Z</time>
      </trkpt>
      <trkpt lat="49.41281" lon="3.51241">
        <ele>69.35</ele>
        <time>2021-07-26T18:54:51Z</time>
      </trkpt>
      <trkpt lat="49.41275" lon="3.51259">
        <ele>69.35</ele>
        <time>2021-07-26T18:54:52Z</time>
      </trkpt>
      <trkpt lat="49.41271" lon="3.51279">
        <ele>68.87</ele>
        <time>2021-07-26T18:54:53Z</time>
      </trkpt>
      <trkpt lat="49.41268" lon="3.51299">
        <ele>67.43</ele>
        <time>2021-07-26T18:54:54Z</time>
      </trkpt>
      <trkpt lat="49.41266" lon="3.51319">
        <ele>65.99</ele>
        <time>2021-07-26T18:54:55Z</time>
      </trkpt>
      <trkpt lat="49.41265" lon="3.51338">
        <ele>65.03</ele>
        <time>2021-07-26T18:54:56Z</time>
      </trkpt>
      <trkpt lat="49.41266" lon="3.51357">
        <ele>63.1</ele>
        <time>2021-07-26T18:54:57Z</time>
      </trkpt>
      <trkpt lat="49.41268" lon="3.51376">
        <ele>60.7</ele>
        <time>2021-07-26T18:54:58Z</time>
      </trkpt>
      <trkpt lat="49.41274" lon="3.51425">
        <ele>59.26</ele>
        <time>2021-07-26T18:55:01Z</time>
      </trkpt>
      <trkpt lat="49.41275" lon="3.51439">
        <ele>60.22</ele>
        <time>2021-07-26T18:55:02Z</time>
      </trkpt>
      <trkpt lat="49.41274" lon="3.51453">
        <ele>61.18</ele>
        <time>2021-07-26T18:55:03Z</time>
      </trkpt>
      <trkpt lat="49.41273" lon="3.51467">
        <ele>61.18</ele>
        <time>2021-07-26T18:55:04Z</time>
      </trkpt>
      <trkpt lat="49.41267" lon="3.51479">
        <ele>60.7</ele>
        <time>2021-07-26T18:55:05Z</time>
      </trkpt>
      <trkpt lat="49.4126" lon="3.5149">
        <ele>59.26</ele>
        <time>2021-07-26T18:55:06Z</time>
      </trkpt>
      <trkpt lat="49.41252" lon="3.51497">
        <ele>58.3</ele>
        <time>2021-07-26T18:55:07Z</time>
      </trkpt>
      <trkpt lat="49.4122" lon="3.51528">
        <ele>56.86</ele>
        <time>2021-07-26T18:55:11Z</time>
      </trkpt>
      <trkpt lat="49.41213" lon="3.51533">
        <ele>56.37</ele>
        <time>2021-07-26T18:55:12Z</time>
      </trkpt>
      <trkpt lat="49.41206" lon="3.51537">
        <ele>56.37</ele>
        <time>2021-07-26T18:55:13Z</time>
      </trkpt>
      <trkpt lat="49.412" lon="3.51539">
        <ele>55.89</ele>
        <time>2021-07-26T18:55:14Z</time>
      </trkpt>
      <trkpt lat="49.41193" lon="3.5154">
        <ele>55.41</ele>
        <time>2021-07-26T18:55:15Z</time>
      </trkpt>
      <trkpt lat="49.41188" lon="3.5154">
        <ele>54.93</ele>
        <time>2021-07-26T18:55:16Z</time>
      </trkpt>
      <trkpt lat="49.41183" lon="3.51541">
        <ele>54.93</ele>
        <time>2021-07-26T18:55:17Z</time>
      </trkpt>
      <trkpt lat="49.41178" lon="3.51543">
        <ele>54.45</ele>
        <time>2021-07-26T18:55:18Z</time>
      </trkpt>
      <trkpt lat="49.41174" lon="3.51548">
        <ele>54.45</ele>
        <time>2021-07-26T18:55:19Z</time>
      </trkpt>
      <trkpt lat="49.41172" lon="3.51554">
        <ele>54.45</ele>
        <time>2021-07-26T18:55:20Z</time>
      </trkpt>
      <trkpt lat="49.41171" lon="3.51563">
        <ele>54.45</ele>
        <time>2021-07-26T18:55:21Z</time>
      </trkpt>
      <trkpt lat="49.4117" lon="3.51573">
        <ele>54.93</ele>
        <time>2021-07-26T18:55:22Z</time>
      </trkpt>
      <trkpt lat="49.41169" lon="3.51584">
        <ele>54.93</ele>
        <time>2021-07-26T18:55:23Z</time>
      </trkpt>
      <trkpt lat="49.4116" lon="3.51777">
        <ele>59.74</ele>
        <time>2021-07-26T18:55:36Z</time>
      </trkpt>
      <trkpt lat="49.41154" lon="3.51825">
        <ele>59.74</ele>
        <time>2021-07-26T18:55:39Z</time>
      </trkpt>
      <trkpt lat="49.41146" lon="3.51852">
        <ele>59.26</ele>
        <time>2021-07-26T18:55:40Z</time>
      </trkpt>
      <trkpt lat="49.41146" lon="3.51852">
        <ele>58.3</ele>
        <time>2021-07-26T18:55:41Z</time>
      </trkpt>
      <trkpt lat="49.4114" lon="3.51863">
        <ele>57.34</ele>
        <time>2021-07-26T18:55:42Z</time>
      </trkpt>
      <trkpt lat="49.41134" lon="3.51875">
        <ele>56.37</ele>
        <time>2021-07-26T18:55:43Z</time>
      </trkpt>
      <trkpt lat="49.41127" lon="3.51887">
        <ele>55.41</ele>
        <time>2021-07-26T18:55:44Z</time>
      </trkpt>
      <trkpt lat="49.41119" lon="3.519">
        <ele>54.93</ele>
        <time>2021-07-26T18:55:45Z</time>
      </trkpt>
      <trkpt lat="49.4111" lon="3.51912">
        <ele>53.97</ele>
        <time>2021-07-26T18:55:46Z</time>
      </trkpt>
      <trkpt lat="49.411" lon="3.5192">
        <ele>53.49</ele>
        <time>2021-07-26T18:55:47Z</time>
      </trkpt>
      <trkpt lat="49.41091" lon="3.51929">
        <ele>53.49</ele>
        <time>2021-07-26T18:55:48Z</time>
      </trkpt>
      <trkpt lat="49.41082" lon="3.51935">
        <ele>52.53</ele>
        <time>2021-07-26T18:55:49Z</time>
      </trkpt>
      <trkpt lat="49.41071" lon="3.51939">
        <ele>52.05</ele>
        <time>2021-07-26T18:55:50Z</time>
      </trkpt>
      <trkpt lat="49.4106" lon="3.51942">
        <ele>51.57</ele>
        <time>2021-07-26T18:55:51Z</time>
      </trkpt>
      <trkpt lat="49.4105" lon="3.51942">
        <ele>51.09</ele>
        <time>2021-07-26T18:55:52Z</time>
      </trkpt>
      <trkpt lat="49.41042" lon="3.51941">
        <ele>50.61</ele>
        <time>2021-07-26T18:55:53Z</time>
      </trkpt>
      <trkpt lat="49.40943" lon="3.51892">
        <ele>50.61</ele>
        <time>2021-07-26T18:56:03Z</time>
      </trkpt>
      <trkpt lat="49.40849" lon="3.5179">
        <ele>49.16</ele>
        <time>2021-07-26T18:56:14Z</time>
      </trkpt>
      <trkpt lat="49.40841" lon="3.51779">
        <ele>48.68</ele>
        <time>2021-07-26T18:56:15Z</time>
      </trkpt>
      <trkpt lat="49.40833" lon="3.51765">
        <ele>49.65</ele>
        <time>2021-07-26T18:56:16Z</time>
      </trkpt>
      <trkpt lat="49.40829" lon="3.5175">
        <ele>50.13</ele>
        <time>2021-07-26T18:56:17Z</time>
      </trkpt>
      <trkpt lat="49.40826" lon="3.51736">
        <ele>50.61</ele>
        <time>2021-07-26T18:56:18Z</time>
      </trkpt>
      <trkpt lat="49.40822" lon="3.51722">
        <ele>50.61</ele>
        <time>2021-07-26T18:56:19Z</time>
      </trkpt>
      <trkpt lat="49.40822" lon="3.51706">
        <ele>50.61</ele>
        <time>2021-07-26T18:56:20Z</time>
      </trkpt>
      <trkpt lat="49.40821" lon="3.5169">
        <ele>50.13</ele>
        <time>2021-07-26T18:56:21Z</time>
      </trkpt>
      <trkpt lat="49.4082" lon="3.51676">
        <ele>49.65</ele>
        <time>2021-07-26T18:56:22Z</time>
      </trkpt>
      <trkpt lat="49.40819" lon="3.51662">
        <ele>49.65</ele>
        <time>2021-07-26T18:56:23Z</time>
      </trkpt>
      <trkpt lat="49.40817" lon="3.5165">
        <ele>49.65</ele>
        <time>2021-07-26T18:56:24Z</time>
      </trkpt>
      <trkpt lat="49.40816" lon="3.51638">
        <ele>49.65</ele>
        <time>2021-07-26T18:56:25Z</time>
      </trkpt>
      <trkpt lat="49.40814" lon="3.51625">
        <ele>49.16</ele>
        <time>2021-07-26T18:56:26Z</time>
      </trkpt>
      <trkpt lat="49.4081" lon="3.51617">
        <ele>49.65</ele>
        <time>2021-07-26T18:56:27Z</time>
      </trkpt>
      <trkpt lat="49.40806" lon="3.51609">
        <ele>50.13</ele>
        <time>2021-07-26T18:56:28Z</time>
      </trkpt>
      <trkpt lat="49.40799" lon="3.51603">
        <ele>50.13</ele>
        <time>2021-07-26T18:56:29Z</time>
      </trkpt>
      <trkpt lat="49.40785" lon="3.51592">
        <ele>50.61</ele>
        <time>2021-07-26T18:56:30Z</time>
      </trkpt>
      <trkpt lat="49.40785" lon="3.51592">
        <ele>50.61</ele>
        <time>2021-07-26T18:56:31Z</time>
      </trkpt>
      <trkpt lat="49.40654" lon="3.5154">
        <ele>48.68</ele>
        <time>2021-07-26T18:56:44Z</time>
      </trkpt>
      <trkpt lat="49.4056" lon="3.51504">
        <ele>46.28</ele>
        <time>2021-07-26T18:56:54Z</time>
      </trkpt>
      <trkpt lat="49.40485" lon="3.51471">
        <ele>45.32</ele>
        <time>2021-07-26T18:57:03Z</time>
      </trkpt>
      <trkpt lat="49.40475" lon="3.51467">
        <ele>45.8</ele>
        <time>2021-07-26T18:57:04Z</time>
      </trkpt>
      <trkpt lat="49.40468" lon="3.51468">
        <ele>46.28</ele>
        <time>2021-07-26T18:57:05Z</time>
      </trkpt>
      <trkpt lat="49.40453" lon="3.51479">
        <ele>45.8</ele>
        <time>2021-07-26T18:57:06Z</time>
      </trkpt>
      <trkpt lat="49.40453" lon="3.51479">
        <ele>45.32</ele>
        <time>2021-07-26T18:57:07Z</time>
      </trkpt>
      <trkpt lat="49.40446" lon="3.51489">
        <ele>45.32</ele>
        <time>2021-07-26T18:57:08Z</time>
      </trkpt>
      <trkpt lat="49.40399" lon="3.51554">
        <ele>44.84</ele>
        <time>2021-07-26T18:57:15Z</time>
      </trkpt>
      <trkpt lat="49.40392" lon="3.51558">
        <ele>44.36</ele>
        <time>2021-07-26T18:57:16Z</time>
      </trkpt>
      <trkpt lat="49.40385" lon="3.51562">
        <ele>44.84</ele>
        <time>2021-07-26T18:57:17Z</time>
      </trkpt>
      <trkpt lat="49.4038" lon="3.51565">
        <ele>45.8</ele>
        <time>2021-07-26T18:57:18Z</time>
      </trkpt>
      <trkpt lat="49.40373" lon="3.51562">
        <ele>46.28</ele>
        <time>2021-07-26T18:57:19Z</time>
      </trkpt>
      <trkpt lat="49.40367" lon="3.5156">
        <ele>46.76</ele>
        <time>2021-07-26T18:57:20Z</time>
      </trkpt>
      <trkpt lat="49.40247" lon="3.51504">
        <ele>50.61</ele>
        <time>2021-07-26T18:57:33Z</time>
      </trkpt>
      <trkpt lat="49.4017" lon="3.51467">
        <ele>51.09</ele>
        <time>2021-07-26T18:57:45Z</time>
      </trkpt>
      <trkpt lat="49.40164" lon="3.51465">
        <ele>50.61</ele>
        <time>2021-07-26T18:57:46Z</time>
      </trkpt>
      <trkpt lat="49.40159" lon="3.51463">
        <ele>50.13</ele>
        <time>2021-07-26T18:57:47Z</time>
      </trkpt>
      <trkpt lat="49.40155" lon="3.51462">
        <ele>50.13</ele>
        <time>2021-07-26T18:57:48Z</time>
      </trkpt>
      <trkpt lat="49.40155" lon="3.51456">
        <ele>49.65</ele>
        <time>2021-07-26T18:57:49Z</time>
      </trkpt>
      <trkpt lat="49.40156" lon="3.51452">
        <ele>49.16</ele>
        <time>2021-07-26T18:57:50Z</time>
      </trkpt>
      <trkpt lat="49.40156" lon="3.51448">
        <ele>48.68</ele>
        <time>2021-07-26T18:57:51Z</time>
      </trkpt>
      <trkpt lat="49.40156" lon="3.51443">
        <ele>48.68</ele>
        <time>2021-07-26T18:57:52Z</time>
      </trkpt>
      <trkpt lat="49.40157" lon="3.51437">
        <ele>48.2</ele>
        <time>2021-07-26T18:57:53Z</time>
      </trkpt>
      <trkpt lat="49.40182" lon="3.51324">
        <ele>47.24</ele>
        <time>2021-07-26T18:58:09Z</time>
      </trkpt>
      <trkpt lat="49.40185" lon="3.51275">
        <ele>46.76</ele>
        <time>2021-07-26T18:58:18Z</time>
      </trkpt>
      <trkpt lat="49.40187" lon="3.51281">
        <ele>46.76</ele>
        <time>2021-07-26T18:58:19Z</time>
      </trkpt>
      <trkpt lat="49.4019" lon="3.51281">
        <ele>46.76</ele>
        <time>2021-07-26T18:58:20Z</time>
      </trkpt>
      <trkpt lat="49.40193" lon="3.51281">
        <ele>46.76</ele>
        <time>2021-07-26T18:58:21Z</time>
      </trkpt>
      <trkpt lat="49.40197" lon="3.51281">
        <ele>46.28</ele>
        <time>2021-07-26T18:58:22Z</time>
      </trkpt>
      <trkpt lat="49.402" lon="3.51281">
        <ele>46.28</ele>
        <time>2021-07-26T18:58:23Z</time>
      </trkpt>
      <trkpt lat="49.40203" lon="3.51281">
        <ele>46.28</ele>
        <time>2021-07-26T18:58:24Z</time>
      </trkpt>
      <trkpt lat="49.40222" lon="3.51281">
        <ele>46.76</ele>
        <time>2021-07-26T18:58:37Z</time>
      </trkpt>
    </trkseg>
  </trk>
</gpx>